sensor_id;sensor_type;location;lat;lon;timestamp;temperature;humidity
4787;DHT22;62338;48.832;9.422;2022-07-24T00:01:39;20.30;30.10
4787;DHT22;62338;48.832;9.422;2022-07-24T00:03:40;20.30;26.10
4787;DHT22;62338;48.832;9.422;2022-07-24T00:05:44;20.20;21.30
4787;DHT22;62338;48.832;9.422;2022-07-24T00:07:46;20.20;24.30
4787;DHT22;62338;48.832;9.422;2022-07-24T00:09:48;20.30;22.50
4787;DHT22;62338;48.832;9.422;2022-07-24T00:11:50;20.30;25.50
4787;DHT22;62338;48.832;9.422;2022-07-24T00:13:52;20.30;28.70
4787;DHT22;62338;48.832;9.422;2022-07-24T00:15:54;20.20;45.00
4787;DHT22;62338;48.832;9.422;2022-07-24T00:17:56;20.20;33.00
4787;DHT22;62338;48.832;9.422;2022-07-24T00:19:58;20.20;43.80
4787;DHT22;62338;48.832;9.422;2022-07-24T00:22:01;20.10;34.20
4787;DHT22;62338;48.832;9.422;2022-07-24T00:24:04;20.20;44.20
4787;DHT22;62338;48.832;9.422;2022-07-24T00:26:06;20.20;31.70
4787;DHT22;62338;48.832;9.422;2022-07-24T00:28:08;20.20;37.10
4787;DHT22;62338;48.832;9.422;2022-07-24T00:30:10;20.20;33.20
4787;DHT22;62338;48.832;9.422;2022-07-24T00:32:15;20.20;43.90
4787;DHT22;62338;48.832;9.422;2022-07-24T00:34:17;20.20;33.30
4787;DHT22;62338;48.832;9.422;2022-07-24T00:36:19;20.20;34.00
4787;DHT22;62338;48.832;9.422;2022-07-24T00:38:21;20.10;54.00
4787;DHT22;62338;48.832;9.422;2022-07-24T00:40:24;20.10;41.30
4787;DHT22;62338;48.832;9.422;2022-07-24T00:42:26;20.10;51.00
4787;DHT22;62338;48.832;9.422;2022-07-24T00:44:28;20.10;45.40
4787;DHT22;62338;48.832;9.422;2022-07-24T00:46:30;20.00;44.80
4787;DHT22;62338;48.832;9.422;2022-07-24T00:48:32;20.00;46.60
4787;DHT22;62338;48.832;9.422;2022-07-24T00:50:37;20.00;46.90
4787;DHT22;62338;48.832;9.422;2022-07-24T00:52:39;19.90;47.40
4787;DHT22;62338;48.832;9.422;2022-07-24T00:54:40;20.00;47.60
4787;DHT22;62338;48.832;9.422;2022-07-24T00:56:44;20.00;49.60
4787;DHT22;62338;48.832;9.422;2022-07-24T00:58:47;20.00;52.40
4787;DHT22;62338;48.832;9.422;2022-07-24T01:00:49;20.00;48.90
4787;DHT22;62338;48.832;9.422;2022-07-24T01:02:55;20.00;46.90
4787;DHT22;62338;48.832;9.422;2022-07-24T01:05:00;20.00;44.50
4787;DHT22;62338;48.832;9.422;2022-07-24T01:07:02;20.00;46.40
4787;DHT22;62338;48.832;9.422;2022-07-24T01:09:05;20.00;48.50
4787;DHT22;62338;48.832;9.422;2022-07-24T01:11:07;19.90;58.80
4787;DHT22;62338;48.832;9.422;2022-07-24T01:13:10;19.90;50.50
4787;DHT22;62338;48.832;9.422;2022-07-24T01:15:13;19.90;53.90
4787;DHT22;62338;48.832;9.422;2022-07-24T01:17:14;19.80;60.00
4787;DHT22;62338;48.832;9.422;2022-07-24T01:19:16;19.80;68.00
4787;DHT22;62338;48.832;9.422;2022-07-24T01:21:18;19.80;65.80
4787;DHT22;62338;48.832;9.422;2022-07-24T01:23:22;19.70;66.90
4787;DHT22;62338;48.832;9.422;2022-07-24T01:25:24;19.70;66.20
4787;DHT22;62338;48.832;9.422;2022-07-24T01:27:27;19.70;57.70
4787;DHT22;62338;48.832;9.422;2022-07-24T01:29:30;19.70;62.50
4787;DHT22;62338;48.832;9.422;2022-07-24T01:31:32;19.70;52.30
4787;DHT22;62338;48.832;9.422;2022-07-24T01:33:34;19.70;53.70
4787;DHT22;62338;48.832;9.422;2022-07-24T01:35:35;19.70;54.00
4787;DHT22;62338;48.832;9.422;2022-07-24T01:37:37;19.70;57.90
4787;DHT22;62338;48.832;9.422;2022-07-24T01:39:40;19.70;63.80
4787;DHT22;62338;48.832;9.422;2022-07-24T01:41:41;19.60;71.30
4787;DHT22;62338;48.832;9.422;2022-07-24T01:43:43;19.60;89.40
4787;DHT22;62338;48.832;9.422;2022-07-24T01:45:45;19.60;90.10
4787;DHT22;62338;48.832;9.422;2022-07-24T01:47:47;19.50;91.30
4787;DHT22;62338;48.832;9.422;2022-07-24T01:49:49;19.50;91.40
4787;DHT22;62338;48.832;9.422;2022-07-24T01:51:51;19.40;99.30
4787;DHT22;62338;48.832;9.422;2022-07-24T01:53:53;19.30;99.90
4787;DHT22;62338;48.832;9.422;2022-07-24T01:55:54;19.30;99.60
4787;DHT22;62338;48.832;9.422;2022-07-24T01:57:56;19.30;99.90
4787;DHT22;62338;48.832;9.422;2022-07-24T01:59:59;19.30;99.90
4787;DHT22;62338;48.832;9.422;2022-07-24T02:02:02;19.30;99.90
4787;DHT22;62338;48.832;9.422;2022-07-24T02:04:04;19.30;99.90
4787;DHT22;62338;48.832;9.422;2022-07-24T02:06:06;19.20;99.90
4787;DHT22;62338;48.832;9.422;2022-07-24T02:08:08;19.20;99.90
4787;DHT22;62338;48.832;9.422;2022-07-24T02:10:12;19.20;99.90
4787;DHT22;62338;48.832;9.422;2022-07-24T02:12:14;19.20;99.70
4787;DHT22;62338;48.832;9.422;2022-07-24T02:14:16;19.20;99.80
4787;DHT22;62338;48.832;9.422;2022-07-24T02:16:18;19.20;99.90
4787;DHT22;62338;48.832;9.422;2022-07-24T02:18:20;19.10;99.90
4787;DHT22;62338;48.832;9.422;2022-07-24T02:20:21;19.20;99.90
4787;DHT22;62338;48.832;9.422;2022-07-24T02:22:23;19.10;99.90
4787;DHT22;62338;48.832;9.422;2022-07-24T02:24:26;19.10;99.90
4787;DHT22;62338;48.832;9.422;2022-07-24T02:26:28;19.00;99.90
4787;DHT22;62338;48.832;9.422;2022-07-24T02:28:29;19.00;99.70
4787;DHT22;62338;48.832;9.422;2022-07-24T02:30:32;19.00;97.90
4787;DHT22;62338;48.832;9.422;2022-07-24T02:32:33;19.00;98.30
4787;DHT22;62338;48.832;9.422;2022-07-24T02:34:35;18.90;98.60
4787;DHT22;62338;48.832;9.422;2022-07-24T02:36:37;18.90;99.90
4787;DHT22;62338;48.832;9.422;2022-07-24T02:38:41;18.90;99.90
4787;DHT22;62338;48.832;9.422;2022-07-24T02:40:43;18.80;99.90
4787;DHT22;62338;48.832;9.422;2022-07-24T02:42:45;18.80;99.90
4787;DHT22;62338;48.832;9.422;2022-07-24T02:44:46;18.70;99.90
4787;DHT22;62338;48.832;9.422;2022-07-24T02:46:48;18.70;99.90
4787;DHT22;62338;48.832;9.422;2022-07-24T02:48:50;18.70;99.90
4787;DHT22;62338;48.832;9.422;2022-07-24T02:50:52;18.60;99.90
4787;DHT22;62338;48.832;9.422;2022-07-24T02:52:54;18.70;99.90
4787;DHT22;62338;48.832;9.422;2022-07-24T02:54:55;18.70;99.90
4787;DHT22;62338;48.832;9.422;2022-07-24T02:56:58;18.70;99.90
4787;DHT22;62338;48.832;9.422;2022-07-24T02:59:00;18.60;99.90
4787;DHT22;62338;48.832;9.422;2022-07-24T03:01:03;18.60;99.90
4787;DHT22;62338;48.832;9.422;2022-07-24T03:03:05;18.60;99.90
4787;DHT22;62338;48.832;9.422;2022-07-24T03:05:07;18.60;99.90
4787;DHT22;62338;48.832;9.422;2022-07-24T03:07:11;18.50;99.90
4787;DHT22;62338;48.832;9.422;2022-07-24T03:09:13;18.50;99.90
4787;DHT22;62338;48.832;9.422;2022-07-24T03:11:15;18.40;99.90
4787;DHT22;62338;48.832;9.422;2022-07-24T03:13:18;18.40;99.90
4787;DHT22;62338;48.832;9.422;2022-07-24T03:15:20;18.40;99.90
4787;DHT22;62338;48.832;9.422;2022-07-24T03:17:21;18.40;99.90
4787;DHT22;62338;48.832;9.422;2022-07-24T03:19:23;18.40;99.90
4787;DHT22;62338;48.832;9.422;2022-07-24T03:21:25;18.30;99.90
4787;DHT22;62338;48.832;9.422;2022-07-24T03:23:47;18.30;99.90
4787;DHT22;62338;48.832;9.422;2022-07-24T03:25:50;18.20;99.90
4787;DHT22;62338;48.832;9.422;2022-07-24T03:27:52;18.20;99.90
4787;DHT22;62338;48.832;9.422;2022-07-24T03:29:54;18.20;99.90
4787;DHT22;62338;48.832;9.422;2022-07-24T03:31:56;18.20;99.90
4787;DHT22;62338;48.832;9.422;2022-07-24T03:33:58;18.20;99.90
4787;DHT22;62338;48.832;9.422;2022-07-24T03:36:00;18.40;99.90
4787;DHT22;62338;48.832;9.422;2022-07-24T03:38:03;18.30;99.90
4787;DHT22;62338;48.832;9.422;2022-07-24T03:40:07;18.30;99.90
4787;DHT22;62338;48.832;9.422;2022-07-24T03:42:12;18.30;99.90
4787;DHT22;62338;48.832;9.422;2022-07-24T03:44:14;18.30;99.90
4787;DHT22;62338;48.832;9.422;2022-07-24T03:46:17;18.30;99.90
4787;DHT22;62338;48.832;9.422;2022-07-24T03:48:18;18.30;99.90
4787;DHT22;62338;48.832;9.422;2022-07-24T03:50:20;18.30;99.90
4787;DHT22;62338;48.832;9.422;2022-07-24T03:52:23;18.40;99.90
4787;DHT22;62338;48.832;9.422;2022-07-24T03:54:25;18.40;99.90
4787;DHT22;62338;48.832;9.422;2022-07-24T03:56:27;18.30;99.90
4787;DHT22;62338;48.832;9.422;2022-07-24T03:58:29;18.30;99.90
4787;DHT22;62338;48.832;9.422;2022-07-24T04:00:34;18.40;99.90
4787;DHT22;62338;48.832;9.422;2022-07-24T04:02:37;18.40;99.90
4787;DHT22;62338;48.832;9.422;2022-07-24T04:04:39;18.40;99.90
4787;DHT22;62338;48.832;9.422;2022-07-24T04:06:41;18.40;99.90
4787;DHT22;62338;48.832;9.422;2022-07-24T04:08:43;18.40;99.90
4787;DHT22;62338;48.832;9.422;2022-07-24T04:10:44;18.50;99.90
4787;DHT22;62338;48.832;9.422;2022-07-24T04:12:47;18.50;99.90
4787;DHT22;62338;48.832;9.422;2022-07-24T04:14:49;18.50;99.90
4787;DHT22;62338;48.832;9.422;2022-07-24T04:16:51;18.60;99.90
4787;DHT22;62338;48.832;9.422;2022-07-24T04:18:53;18.50;99.90
4787;DHT22;62338;48.832;9.422;2022-07-24T04:20:56;18.50;99.90
4787;DHT22;62338;48.832;9.422;2022-07-24T04:23:00;18.60;99.90
4787;DHT22;62338;48.832;9.422;2022-07-24T04:25:02;18.60;99.90
4787;DHT22;62338;48.832;9.422;2022-07-24T04:27:06;18.60;99.90
4787;DHT22;62338;48.832;9.422;2022-07-24T04:29:07;18.70;99.90
4787;DHT22;62338;48.832;9.422;2022-07-24T04:31:10;18.80;99.90
4787;DHT22;62338;48.832;9.422;2022-07-24T04:33:12;18.80;99.90
4787;DHT22;62338;48.832;9.422;2022-07-24T04:35:14;18.80;99.90
4787;DHT22;62338;48.832;9.422;2022-07-24T04:37:16;18.80;99.90
4787;DHT22;62338;48.832;9.422;2022-07-24T04:39:18;18.80;99.90
4787;DHT22;62338;48.832;9.422;2022-07-24T04:41:20;18.90;99.90
4787;DHT22;62338;48.832;9.422;2022-07-24T04:43:22;19.00;99.90
4787;DHT22;62338;48.832;9.422;2022-07-24T04:45:23;19.10;99.90
4787;DHT22;62338;48.832;9.422;2022-07-24T04:47:25;19.10;99.90
4787;DHT22;62338;48.832;9.422;2022-07-24T04:49:27;19.20;99.90
4787;DHT22;62338;48.832;9.422;2022-07-24T04:51:29;19.20;99.90
4787;DHT22;62338;48.832;9.422;2022-07-24T04:53:31;19.30;99.90
4787;DHT22;62338;48.832;9.422;2022-07-24T04:55:33;19.30;99.90
4787;DHT22;62338;48.832;9.422;2022-07-24T04:57:36;19.40;99.90
4787;DHT22;62338;48.832;9.422;2022-07-24T04:59:38;19.40;99.90
4787;DHT22;62338;48.832;9.422;2022-07-24T05:01:40;19.50;99.90
4787;DHT22;62338;48.832;9.422;2022-07-24T05:03:42;19.50;99.90
4787;DHT22;62338;48.832;9.422;2022-07-24T05:05:44;19.60;99.90
4787;DHT22;62338;48.832;9.422;2022-07-24T05:07:46;19.60;99.90
4787;DHT22;62338;48.832;9.422;2022-07-24T05:09:48;19.60;99.90
4787;DHT22;62338;48.832;9.422;2022-07-24T05:11:49;19.70;99.90
4787;DHT22;62338;48.832;9.422;2022-07-24T05:13:51;19.80;99.90
4787;DHT22;62338;48.832;9.422;2022-07-24T05:15:53;19.70;99.90
4787;DHT22;62338;48.832;9.422;2022-07-24T05:17:56;19.80;99.90
4787;DHT22;62338;48.832;9.422;2022-07-24T05:19:59;19.70;99.90
4787;DHT22;62338;48.832;9.422;2022-07-24T05:22:01;19.80;99.90
4787;DHT22;62338;48.832;9.422;2022-07-24T05:24:03;19.80;99.90
4787;DHT22;62338;48.832;9.422;2022-07-24T05:26:06;19.90;99.90
4787;DHT22;62338;48.832;9.422;2022-07-24T05:28:07;19.90;99.90
4787;DHT22;62338;48.832;9.422;2022-07-24T05:30:10;20.00;99.90
4787;DHT22;62338;48.832;9.422;2022-07-24T05:32:12;20.00;99.90
4787;DHT22;62338;48.832;9.422;2022-07-24T05:34:14;20.00;99.90
4787;DHT22;62338;48.832;9.422;2022-07-24T05:36:16;20.00;99.90
4787;DHT22;62338;48.832;9.422;2022-07-24T05:38:18;20.10;99.90
4787;DHT22;62338;48.832;9.422;2022-07-24T05:40:20;20.10;99.90
4787;DHT22;62338;48.832;9.422;2022-07-24T05:42:22;20.10;99.90
4787;DHT22;62338;48.832;9.422;2022-07-24T05:44:23;20.10;99.90
4787;DHT22;62338;48.832;9.422;2022-07-24T05:46:25;20.20;98.70
4787;DHT22;62338;48.832;9.422;2022-07-24T05:48:27;20.10;99.90
4787;DHT22;62338;48.832;9.422;2022-07-24T05:50:29;20.20;98.80
4787;DHT22;62338;48.832;9.422;2022-07-24T05:52:31;20.30;98.00
4787;DHT22;62338;48.832;9.422;2022-07-24T05:54:33;20.30;98.80
4787;DHT22;62338;48.832;9.422;2022-07-24T05:56:35;20.30;95.10
4787;DHT22;62338;48.832;9.422;2022-07-24T05:58:36;20.40;99.90
4787;DHT22;62338;48.832;9.422;2022-07-24T06:00:38;20.50;93.30
4787;DHT22;62338;48.832;9.422;2022-07-24T06:02:40;20.60;81.20
4787;DHT22;62338;48.832;9.422;2022-07-24T06:04:42;20.70;62.70
4787;DHT22;62338;48.832;9.422;2022-07-24T06:06:44;20.80;55.20
4787;DHT22;62338;48.832;9.422;2022-07-24T06:08:46;20.80;46.30
4787;DHT22;62338;48.832;9.422;2022-07-24T06:10:49;20.90;38.20
4787;DHT22;62338;48.832;9.422;2022-07-24T06:12:51;21.10;44.30
4787;DHT22;62338;48.832;9.422;2022-07-24T06:14:53;21.20;23.50
4787;DHT22;62338;48.832;9.422;2022-07-24T06:16:55;21.30;22.50
4787;DHT22;62338;48.832;9.422;2022-07-24T06:18:57;21.30;22.70
4787;DHT22;62338;48.832;9.422;2022-07-24T06:21:00;21.30;1.00
4787;DHT22;62338;48.832;9.422;2022-07-24T06:23:02;21.40;7.70
4787;DHT22;62338;48.832;9.422;2022-07-24T06:25:04;21.40;24.80
4787;DHT22;62338;48.832;9.422;2022-07-24T06:27:08;21.60;27.20
4787;DHT22;62338;48.832;9.422;2022-07-24T06:29:13;21.70;11.00
4787;DHT22;62338;48.832;9.422;2022-07-24T06:31:20;21.70;6.40
4787;DHT22;62338;48.832;9.422;2022-07-24T06:33:23;21.90;1.00
4787;DHT22;62338;48.832;9.422;2022-07-24T06:35:26;21.90;1.00
4787;DHT22;62338;48.832;9.422;2022-07-24T06:37:28;21.80;1.00
4787;DHT22;62338;48.832;9.422;2022-07-24T06:39:31;21.80;4.90
4787;DHT22;62338;48.832;9.422;2022-07-24T06:41:33;21.90;1.00
4787;DHT22;62338;48.832;9.422;2022-07-24T06:43:34;22.00;1.00
4787;DHT22;62338;48.832;9.422;2022-07-24T06:45:36;22.10;1.00
4787;DHT22;62338;48.832;9.422;2022-07-24T06:47:38;22.20;1.00
4787;DHT22;62338;48.832;9.422;2022-07-24T06:49:40;22.30;1.00
4787;DHT22;62338;48.832;9.422;2022-07-24T06:51:42;22.40;1.00
4787;DHT22;62338;48.832;9.422;2022-07-24T06:53:46;22.40;1.00
4787;DHT22;62338;48.832;9.422;2022-07-24T06:55:49;22.60;1.00
4787;DHT22;62338;48.832;9.422;2022-07-24T06:57:54;22.60;1.00
4787;DHT22;62338;48.832;9.422;2022-07-24T06:59:56;22.90;1.00
4787;DHT22;62338;48.832;9.422;2022-07-24T07:01:58;23.10;1.00
4787;DHT22;62338;48.832;9.422;2022-07-24T07:04:00;23.40;1.00
4787;DHT22;62338;48.832;9.422;2022-07-24T07:06:02;24.10;1.00
4787;DHT22;62338;48.832;9.422;2022-07-24T07:08:05;25.20;99.90
4787;DHT22;62338;48.832;9.422;2022-07-24T07:10:08;26.50;99.90
4787;DHT22;62338;48.832;9.422;2022-07-24T07:12:10;27.70;1.00
4787;DHT22;62338;48.832;9.422;2022-07-24T07:14:13;28.90;1.00
4787;DHT22;62338;48.832;9.422;2022-07-24T07:16:15;29.80;1.00
4787;DHT22;62338;48.832;9.422;2022-07-24T07:18:17;30.60;99.90
4787;DHT22;62338;48.832;9.422;2022-07-24T07:20:19;31.30;99.90
4787;DHT22;62338;48.832;9.422;2022-07-24T07:22:21;32.00;99.90
4787;DHT22;62338;48.832;9.422;2022-07-24T07:24:23;32.40;93.40
4787;DHT22;62338;48.832;9.422;2022-07-24T07:26:25;32.70;42.90
4787;DHT22;62338;48.832;9.422;2022-07-24T07:31:43;32.90;1.00
4787;DHT22;62338;48.832;9.422;2022-07-24T07:33:44;33.60;1.00
4787;DHT22;62338;48.832;9.422;2022-07-24T07:35:46;33.30;1.00
4787;DHT22;62338;48.832;9.422;2022-07-24T07:37:49;33.10;1.00
4787;DHT22;62338;48.832;9.422;2022-07-24T07:39:52;32.80;1.00
4787;DHT22;62338;48.832;9.422;2022-07-24T07:41:55;33.30;1.00
4787;DHT22;62338;48.832;9.422;2022-07-24T07:43:57;33.40;1.00
4787;DHT22;62338;48.832;9.422;2022-07-24T07:46:00;33.60;1.00
4787;DHT22;62338;48.832;9.422;2022-07-24T07:48:02;32.60;1.00
4787;DHT22;62338;48.832;9.422;2022-07-24T07:50:05;32.10;1.00
4787;DHT22;62338;48.832;9.422;2022-07-24T07:52:07;31.50;1.00
4787;DHT22;62338;48.832;9.422;2022-07-24T07:54:09;30.80;1.00
4787;DHT22;62338;48.832;9.422;2022-07-24T07:56:10;29.90;72.60
4787;DHT22;62338;48.832;9.422;2022-07-24T07:58:12;29.50;99.90
4787;DHT22;62338;48.832;9.422;2022-07-24T08:00:14;30.00;99.90
4787;DHT22;62338;48.832;9.422;2022-07-24T08:02:18;30.70;99.90
4787;DHT22;62338;48.832;9.422;2022-07-24T08:04:21;31.00;65.30
4787;DHT22;62338;48.832;9.422;2022-07-24T08:06:23;31.90;1.50
4787;DHT22;62338;48.832;9.422;2022-07-24T08:08:26;32.20;1.00
4787;DHT22;62338;48.832;9.422;2022-07-24T08:10:28;31.50;1.00
4787;DHT22;62338;48.832;9.422;2022-07-24T08:12:30;30.50;1.00
4787;DHT22;62338;48.832;9.422;2022-07-24T08:14:34;30.00;84.20
4787;DHT22;62338;48.832;9.422;2022-07-24T08:16:37;29.90;1.00
4787;DHT22;62338;48.832;9.422;2022-07-24T08:18:39;30.70;99.90
4787;DHT22;62338;48.832;9.422;2022-07-24T08:20:50;31.70;1.00
4787;DHT22;62338;48.832;9.422;2022-07-24T08:22:53;32.30;14.30
4787;DHT22;62338;48.832;9.422;2022-07-24T08:24:59;33.40;1.00
4787;DHT22;62338;48.832;9.422;2022-07-24T08:27:01;33.90;1.00
4787;DHT22;62338;48.832;9.422;2022-07-24T08:29:03;34.00;1.00
4787;DHT22;62338;48.832;9.422;2022-07-24T08:31:08;34.70;1.00
4787;DHT22;62338;48.832;9.422;2022-07-24T08:33:10;35.20;1.00
4787;DHT22;62338;48.832;9.422;2022-07-24T08:35:12;35.40;1.00
4787;DHT22;62338;48.832;9.422;2022-07-24T08:37:14;35.20;1.00
4787;DHT22;62338;48.832;9.422;2022-07-24T08:39:19;35.70;1.00
4787;DHT22;62338;48.832;9.422;2022-07-24T08:41:21;35.50;1.00
4787;DHT22;62338;48.832;9.422;2022-07-24T08:43:28;35.60;1.00
4787;DHT22;62338;48.832;9.422;2022-07-24T08:45:34;35.90;1.00
4787;DHT22;62338;48.832;9.422;2022-07-24T08:47:41;36.00;1.00
4787;DHT22;62338;48.832;9.422;2022-07-24T08:49:46;36.40;1.00
4787;DHT22;62338;48.832;9.422;2022-07-24T08:51:50;35.80;1.00
4787;DHT22;62338;48.832;9.422;2022-07-24T08:53:52;36.30;1.00
4787;DHT22;62338;48.832;9.422;2022-07-24T08:55:55;35.80;1.00
4787;DHT22;62338;48.832;9.422;2022-07-24T08:57:58;36.00;1.00
4787;DHT22;62338;48.832;9.422;2022-07-24T09:00:00;36.30;1.00
4787;DHT22;62338;48.832;9.422;2022-07-24T09:02:02;36.40;1.00
4787;DHT22;62338;48.832;9.422;2022-07-24T09:04:04;36.00;1.00
4787;DHT22;62338;48.832;9.422;2022-07-24T09:06:07;36.30;1.00
4787;DHT22;62338;48.832;9.422;2022-07-24T09:08:13;36.40;1.00
4787;DHT22;62338;48.832;9.422;2022-07-24T09:10:17;36.20;1.00
4787;DHT22;62338;48.832;9.422;2022-07-24T09:12:19;35.80;1.00
4787;DHT22;62338;48.832;9.422;2022-07-24T09:14:30;35.70;1.00
4787;DHT22;62338;48.832;9.422;2022-07-24T09:16:33;35.60;1.00
4787;DHT22;62338;48.832;9.422;2022-07-24T09:18:35;36.00;1.00
4787;DHT22;62338;48.832;9.422;2022-07-24T09:20:38;36.00;1.00
4787;DHT22;62338;48.832;9.422;2022-07-24T09:22:42;36.20;1.00
4787;DHT22;62338;48.832;9.422;2022-07-24T09:24:44;35.90;1.00
4787;DHT22;62338;48.832;9.422;2022-07-24T09:26:56;35.20;1.00
4787;DHT22;62338;48.832;9.422;2022-07-24T09:28:57;34.90;1.00
4787;DHT22;62338;48.832;9.422;2022-07-24T09:31:02;35.00;1.00
4787;DHT22;62338;48.832;9.422;2022-07-24T09:33:15;35.60;1.00
4787;DHT22;62338;48.832;9.422;2022-07-24T09:35:17;36.00;1.00
4787;DHT22;62338;48.832;9.422;2022-07-24T09:37:20;36.60;1.00
4787;DHT22;62338;48.832;9.422;2022-07-24T09:39:24;36.40;1.00
4787;DHT22;62338;48.832;9.422;2022-07-24T09:41:27;36.70;1.00
4787;DHT22;62338;48.832;9.422;2022-07-24T09:43:31;36.90;1.00
4787;DHT22;62338;48.832;9.422;2022-07-24T09:45:53;37.80;1.00
4787;DHT22;62338;48.832;9.422;2022-07-24T09:47:55;37.90;1.00
4787;DHT22;62338;48.832;9.422;2022-07-24T09:50:14;37.60;1.00
4787;DHT22;62338;48.832;9.422;2022-07-24T09:52:18;37.40;1.00
4787;DHT22;62338;48.832;9.422;2022-07-24T09:54:44;37.00;1.00
4787;DHT22;62338;48.832;9.422;2022-07-24T09:56:46;37.40;1.00
4787;DHT22;62338;48.832;9.422;2022-07-24T09:58:53;37.10;1.00
4787;DHT22;62338;48.832;9.422;2022-07-24T10:00:57;37.00;1.00
4787;DHT22;62338;48.832;9.422;2022-07-24T10:03:00;36.80;1.00
4787;DHT22;62338;48.832;9.422;2022-07-24T10:05:06;36.70;1.00
4787;DHT22;62338;48.832;9.422;2022-07-24T10:07:12;37.20;1.00
4787;DHT22;62338;48.832;9.422;2022-07-24T10:09:17;36.60;1.00
4787;DHT22;62338;48.832;9.422;2022-07-24T10:11:23;36.70;1.00
4787;DHT22;62338;48.832;9.422;2022-07-24T10:13:25;37.70;1.00
4787;DHT22;62338;48.832;9.422;2022-07-24T10:15:33;38.30;1.00
4787;DHT22;62338;48.832;9.422;2022-07-24T10:17:57;37.80;1.00
4787;DHT22;62338;48.832;9.422;2022-07-24T10:20:03;37.60;1.00
4787;DHT22;62338;48.832;9.422;2022-07-24T10:22:30;38.00;1.00
4787;DHT22;62338;48.832;9.422;2022-07-24T10:27:03;36.90;1.00
4787;DHT22;62338;48.832;9.422;2022-07-24T10:31:14;37.10;1.00
4787;DHT22;62338;48.832;9.422;2022-07-24T10:33:17;37.60;1.00
4787;DHT22;62338;48.832;9.422;2022-07-24T10:35:24;38.10;1.00
4787;DHT22;62338;48.832;9.422;2022-07-24T10:38:02;37.80;1.00
4787;DHT22;62338;48.832;9.422;2022-07-24T10:40:33;37.80;1.00
4787;DHT22;62338;48.832;9.422;2022-07-24T10:45:17;38.00;1.00
4787;DHT22;62338;48.832;9.422;2022-07-24T10:47:25;38.50;1.00
4787;DHT22;62338;48.832;9.422;2022-07-24T10:51:59;38.10;1.00
4787;DHT22;62338;48.832;9.422;2022-07-24T10:54:17;37.40;1.00
4787;DHT22;62338;48.832;9.422;2022-07-24T10:56:27;37.70;1.00
4787;DHT22;62338;48.832;9.422;2022-07-24T10:58:30;37.40;1.00
4787;DHT22;62338;48.832;9.422;2022-07-24T11:00:36;37.70;1.00
4787;DHT22;62338;48.832;9.422;2022-07-24T11:03:02;38.00;1.00
4787;DHT22;62338;48.832;9.422;2022-07-24T11:05:24;38.70;1.00
4787;DHT22;62338;48.832;9.422;2022-07-24T11:07:27;38.70;1.00
4787;DHT22;62338;48.832;9.422;2022-07-24T11:09:28;38.50;1.00
4787;DHT22;62338;48.832;9.422;2022-07-24T11:11:30;38.00;1.00
4787;DHT22;62338;48.832;9.422;2022-07-24T11:18:15;38.60;1.00
4787;DHT22;62338;48.832;9.422;2022-07-24T11:20:19;37.90;1.00
4787;DHT22;62338;48.832;9.422;2022-07-24T11:22:52;37.90;1.00
4787;DHT22;62338;48.832;9.422;2022-07-24T11:25:30;38.10;1.00
4787;DHT22;62338;48.832;9.422;2022-07-24T11:29:52;37.70;1.00
4787;DHT22;62338;48.832;9.422;2022-07-24T11:31:56;37.50;1.00
4787;DHT22;62338;48.832;9.422;2022-07-24T11:34:00;37.10;1.00
4787;DHT22;62338;48.832;9.422;2022-07-24T11:36:07;36.70;1.00
4787;DHT22;62338;48.832;9.422;2022-07-24T11:38:09;35.80;1.00
4787;DHT22;62338;48.832;9.422;2022-07-24T11:40:15;35.90;1.00
4787;DHT22;62338;48.832;9.422;2022-07-24T11:42:17;36.40;1.00
4787;DHT22;62338;48.832;9.422;2022-07-24T11:44:31;36.60;1.00
4787;DHT22;62338;48.832;9.422;2022-07-24T11:46:38;37.10;1.00
4787;DHT22;62338;48.832;9.422;2022-07-24T11:48:43;37.00;1.00
4787;DHT22;62338;48.832;9.422;2022-07-24T11:50:45;37.10;1.00
4787;DHT22;62338;48.832;9.422;2022-07-24T11:52:47;37.30;1.00
4787;DHT22;62338;48.832;9.422;2022-07-24T11:54:52;37.40;1.00
4787;DHT22;62338;48.832;9.422;2022-07-24T11:56:55;37.50;1.00
4787;DHT22;62338;48.832;9.422;2022-07-24T11:58:59;37.40;1.00
4787;DHT22;62338;48.832;9.422;2022-07-24T12:01:01;37.10;1.00
4787;DHT22;62338;48.832;9.422;2022-07-24T12:03:05;37.10;1.00
4787;DHT22;62338;48.832;9.422;2022-07-24T12:05:07;36.70;1.00
4787;DHT22;62338;48.832;9.422;2022-07-24T12:07:12;36.50;1.00
4787;DHT22;62338;48.832;9.422;2022-07-24T12:09:14;36.30;1.00
4787;DHT22;62338;48.832;9.422;2022-07-24T12:11:20;35.90;1.00
4787;DHT22;62338;48.832;9.422;2022-07-24T12:13:23;36.30;1.00
4787;DHT22;62338;48.832;9.422;2022-07-24T12:15:26;36.80;1.00
4787;DHT22;62338;48.832;9.422;2022-07-24T12:17:30;37.10;1.00
4787;DHT22;62338;48.832;9.422;2022-07-24T12:19:33;37.80;1.00
4787;DHT22;62338;48.832;9.422;2022-07-24T12:21:35;37.80;1.00
4787;DHT22;62338;48.832;9.422;2022-07-24T12:23:37;37.10;1.00
4787;DHT22;62338;48.832;9.422;2022-07-24T12:25:40;37.50;1.00
4787;DHT22;62338;48.832;9.422;2022-07-24T12:27:45;37.10;1.00
4787;DHT22;62338;48.832;9.422;2022-07-24T12:29:49;37.00;1.00
4787;DHT22;62338;48.832;9.422;2022-07-24T12:32:16;36.70;1.00
4787;DHT22;62338;48.832;9.422;2022-07-24T12:34:18;36.90;1.00
4787;DHT22;62338;48.832;9.422;2022-07-24T12:36:21;38.10;1.00
4787;DHT22;62338;48.832;9.422;2022-07-24T12:38:30;38.40;1.00
4787;DHT22;62338;48.832;9.422;2022-07-24T12:40:36;38.20;1.00
4787;DHT22;62338;48.832;9.422;2022-07-24T12:42:38;38.10;1.00
4787;DHT22;62338;48.832;9.422;2022-07-24T12:44:44;38.10;1.00
4787;DHT22;62338;48.832;9.422;2022-07-24T12:46:46;38.00;1.00
4787;DHT22;62338;48.832;9.422;2022-07-24T12:49:14;37.70;1.00
4787;DHT22;62338;48.832;9.422;2022-07-24T12:51:16;37.70;1.00
4787;DHT22;62338;48.832;9.422;2022-07-24T12:53:19;38.20;1.00
4787;DHT22;62338;48.832;9.422;2022-07-24T12:55:21;37.60;1.00
4787;DHT22;62338;48.832;9.422;2022-07-24T12:57:23;37.70;1.00
4787;DHT22;62338;48.832;9.422;2022-07-24T12:59:33;38.60;1.00
4787;DHT22;62338;48.832;9.422;2022-07-24T13:01:52;39.00;1.00
4787;DHT22;62338;48.832;9.422;2022-07-24T13:04:00;39.10;1.00
4787;DHT22;62338;48.832;9.422;2022-07-24T13:06:03;39.90;1.00
4787;DHT22;62338;48.832;9.422;2022-07-24T13:08:06;40.50;1.00
4787;DHT22;62338;48.832;9.422;2022-07-24T13:10:09;41.10;1.00
4787;DHT22;62338;48.832;9.422;2022-07-24T13:12:10;41.10;1.00
4787;DHT22;62338;48.832;9.422;2022-07-24T13:14:14;41.30;1.00
4787;DHT22;62338;48.832;9.422;2022-07-24T13:16:17;41.20;1.00
4787;DHT22;62338;48.832;9.422;2022-07-24T13:18:20;39.70;1.00
4787;DHT22;62338;48.832;9.422;2022-07-24T13:20:22;38.90;1.00
4787;DHT22;62338;48.832;9.422;2022-07-24T13:22:26;38.60;1.00
4787;DHT22;62338;48.832;9.422;2022-07-24T13:24:28;39.20;1.00
4787;DHT22;62338;48.832;9.422;2022-07-24T13:26:31;39.90;1.00
4787;DHT22;62338;48.832;9.422;2022-07-24T13:28:33;40.30;1.00
4787;DHT22;62338;48.832;9.422;2022-07-24T13:30:35;39.70;1.00
4787;DHT22;62338;48.832;9.422;2022-07-24T13:32:36;39.50;1.00
4787;DHT22;62338;48.832;9.422;2022-07-24T13:34:38;39.40;1.00
4787;DHT22;62338;48.832;9.422;2022-07-24T13:36:40;39.70;1.00
4787;DHT22;62338;48.832;9.422;2022-07-24T13:38:47;39.90;1.00
4787;DHT22;62338;48.832;9.422;2022-07-24T13:40:50;39.90;1.00